Time;durP1;ratioP1;P1;durP2;ratioP2;P2;SDS_P1;SDS_P2;PMS_P1;PMS_P2;Temp;Humidity;BMP_temperature;BMP_pressure;BME280_temperature;BME280_humidity;BME280_pressure;Samples;Min_cycle;Max_cycle;Signal;HPM_P1;HPM_P2
2023/12/04 00:03:07;;;;;;;27.53;12.80;;;;;;;-2.88;100.00;101254.29;4793830;58;1142986;-75
2023/12/04 00:08:13;;;;;;;36.43;16.63;;;;;;;-2.91;100.00;101241.41;4774670;59;1143116;-75
2023/12/04 00:13:18;;;;;;;55.77;20.57;;;;;;;-2.92;100.00;101243.58;4720984;60;1143333;-76
2023/12/04 00:18:24;;;;;;;32.60;16.40;;;;;;;-2.92;100.00;101237.96;4751317;60;1142950;-76
2023/12/04 00:23:29;;;;;;;38.75;17.35;;;;;;;-2.92;100.00;101247.02;4719335;59;1142856;-75
2023/12/04 00:28:39;;;;;;;40.83;18.43;;;;;;;-2.92;100.00;101247.45;4710295;59;1143202;-75
2023/12/04 00:33:45;;;;;;;49.73;20.77;;;;;;;-2.94;100.00;101256.53;4726749;60;1143281;-75
2023/12/04 00:38:51;;;;;;;33.03;14.80;;;;;;;-2.91;100.00;101262.11;4708065;60;1150085;-76
2023/12/04 00:43:57;;;;;;;40.73;19.40;;;;;;;-2.94;100.00;101259.55;4708947;59;1143157;-76
2023/12/04 00:49:02;;;;;;;38.97;16.33;;;;;;;-2.97;100.00;101258.28;4729963;60;1143083;-76
2023/12/04 00:54:08;;;;;;;33.13;15.43;;;;;;;-3.00;100.00;101268.22;4709905;60;1143140;-75
2023/12/04 00:59:14;;;;;;;28.13;14.63;;;;;;;-3.04;100.00;101270.84;4787100;57;1143029;-76
2023/12/04 01:04:19;;;;;;;39.03;17.07;;;;;;;-3.05;100.00;101267.84;4760976;59;1143060;-75
2023/12/04 01:09:25;;;;;;;31.30;14.77;;;;;;;-3.05;100.00;101269.12;4729789;59;1143173;-76
2023/12/04 01:14:30;;;;;;;35.33;15.83;;;;;;;-3.07;100.00;101274.35;4711590;59;1143308;-75
2023/12/04 01:19:36;;;;;;;24.40;13.50;;;;;;;-3.11;100.00;101273.95;4712410;59;1143266;-76
2023/12/04 01:24:42;;;;;;;31.37;15.37;;;;;;;-3.10;100.00;101270.49;4730322;59;1142891;-75
2023/12/04 01:29:47;;;;;;;28.80;14.63;;;;;;;-3.10;100.00;101269.20;4711438;59;1143152;-75
2023/12/04 01:34:54;;;;;;;29.98;13.48;;;;;;;-3.14;100.00;101272.67;4724305;59;1143100;-76
2023/12/04 01:39:59;;;;;;;24.70;11.93;;;;;;;-3.15;100.00;101276.56;4717533;59;1149134;-75
2023/12/04 01:45:06;;;;;;;37.40;15.17;;;;;;;-3.17;100.00;101271.84;4712253;59;1143051;-76
2023/12/04 01:50:12;;;;;;;25.83;13.50;;;;;;;-3.21;100.00;101284.80;4712139;59;1143145;-76
2023/12/04 01:55:19;;;;;;;24.85;10.53;;;;;;;-3.24;100.00;101281.41;4817028;59;1143194;-76
2023/12/04 02:00:24;;;;;;;23.57;12.07;;;;;;;-3.23;100.00;101272.34;4799549;58;1142852;-76
2023/12/04 02:05:30;;;;;;;30.67;14.40;;;;;;;-3.28;100.00;101271.95;4712562;59;1142885;-75
2023/12/04 02:10:36;;;;;;;25.23;12.53;;;;;;;-3.30;100.00;101263.34;4712696;60;1143078;-75
2023/12/04 02:15:42;;;;;;;25.10;13.47;;;;;;;-3.29;100.00;101271.52;4748343;59;1143216;-75
2023/12/04 02:20:48;;;;;;;27.47;13.40;;;;;;;-3.28;100.00;101279.27;4713563;59;1143463;-75
2023/12/04 02:26:04;;;;;;;33.10;14.33;;;;;;;-3.29;100.00;101281.88;4711928;59;1230126;-75
2023/12/04 02:31:11;;;;;;;30.65;14.18;;;;;;;-3.31;100.00;101278.44;4731561;59;1142978;-75
2023/12/04 02:36:18;;;;;;;19.37;9.37;;;;;;;-3.33;100.00;101273.27;4713043;59;1142966;-75
2023/12/04 02:41:24;;;;;;;24.83;12.83;;;;;;;-3.38;100.00;101265.16;4713028;59;1140900;-75
2023/12/04 02:46:29;;;;;;;21.33;11.05;;;;;;;-3.42;100.00;101269.92;4749515;59;1143015;-76
2023/12/04 02:51:35;;;;;;;26.23;13.43;;;;;;;-3.38;100.00;101270.33;4742302;60;1142945;-75
2023/12/04 02:56:40;;;;;;;22.93;11.47;;;;;;;-3.38;100.00;101270.33;4742901;59;1142772;-75
2023/12/04 03:01:46;;;;;;;26.97;12.93;;;;;;;-3.37;100.00;101265.58;4773771;59;1142848;-75
2023/12/04 03:06:51;;;;;;;25.17;11.87;;;;;;;-3.40;100.00;101267.75;4589277;61;1143011;-76
2023/12/04 03:11:57;;;;;;;22.10;12.40;;;;;;;-3.41;100.00;101264.73;4606146;61;1143157;-76
2023/12/04 03:17:02;;;;;;;26.50;12.90;;;;;;;-3.45;100.00;101264.77;4636400;61;1142992;-75
2023/12/04 03:22:08;;;;;;;23.63;11.93;;;;;;;-3.46;100.00;101270.81;4654941;60;1143075;-75
2023/12/04 03:27:14;;;;;;;26.23;13.00;;;;;;;-3.44;100.00;101265.20;4637119;60;1143171;-76
2023/12/04 03:32:19;;;;;;;33.63;14.50;;;;;;;-3.48;100.00;101261.77;4636904;60;1143064;-75
2023/12/04 03:37:25;;;;;;;27.00;12.53;;;;;;;-3.48;100.00;101256.59;4636509;59;1143146;-75
2023/12/04 03:42:30;;;;;;;29.20;12.57;;;;;;;-3.43;100.00;101274.23;4654137;60;1142940;-75
2023/12/04 03:47:36;;;;;;;30.20;14.17;;;;;;;-3.40;100.00;101274.65;4677297;59;1143013;-75
2023/12/04 03:52:41;;;;;;;26.70;14.13;;;;;;;-3.40;100.00;101272.92;4710661;59;1142921;-76
2023/12/04 03:57:47;;;;;;;28.60;15.13;;;;;;;-3.38;100.00;101276.36;4730238;59;1143095;-75
2023/12/04 04:02:53;;;;;;;25.70;12.83;;;;;;;-3.33;100.00;101271.13;4712472;59;1143022;-75
2023/12/04 04:07:59;;;;;;;28.67;13.83;;;;;;;-3.30;100.00;101271.96;4710022;59;1152246;-77
2023/12/04 04:13:04;;;;;;;30.27;13.28;;;;;;;-3.28;100.00;101254.70;4749829;59;1143037;-76
2023/12/04 04:18:10;;;;;;;28.33;13.43;;;;;;;-3.23;100.00;101263.72;4692645;59;1143027;-74
2023/12/04 04:23:16;;;;;;;33.98;16.10;;;;;;;-3.22;100.00;101255.95;4701375;59;1142997;-75
2023/12/04 04:28:21;;;;;;;31.47;15.73;;;;;;;-3.23;100.00;101252.94;4730548;59;1142851;-75
2023/12/04 04:33:27;;;;;;;29.73;14.83;;;;;;;-3.27;100.00;101260.73;4714940;60;1142964;-75
2023/12/04 04:38:32;;;;;;;27.37;13.43;;;;;;;-3.33;100.00;101252.59;4692961;60;1142923;-75
2023/12/04 04:43:38;;;;;;;31.93;15.63;;;;;;;-3.35;100.00;101256.91;4711658;59;1143013;-75
2023/12/04 04:48:43;;;;;;;28.27;14.50;;;;;;;-3.36;100.00;101268.13;4719717;60;1142978;-75
2023/12/04 04:53:49;;;;;;;34.70;16.47;;;;;;;-3.33;100.00;101268.10;4711824;60;1142912;-74
2023/12/04 04:58:55;;;;;;;28.90;15.13;;;;;;;-3.28;100.00;101255.14;4754138;59;1143010;-75
2023/12/04 05:04:00;;;;;;;30.80;14.13;;;;;;;-3.28;100.00;101250.83;4788477;57;1142812;-75
2023/12/04 05:09:06;;;;;;;32.53;15.93;;;;;;;-3.27;100.00;101254.27;4737683;59;1143026;-76
2023/12/04 05:14:11;;;;;;;39.23;18.45;;;;;;;-3.29;100.00;101243.08;4763684;58;1143126;-70
2023/12/04 05:19:17;;;;;;;40.87;18.73;;;;;;;-3.28;100.00;101249.53;4790870;59;1142958;-70
2023/12/04 05:24:22;;;;;;;32.20;16.77;;;;;;;-3.25;100.00;101241.75;4767571;58;1142941;-71
2023/12/04 05:29:28;;;;;;;30.68;14.73;;;;;;;-3.24;100.00;101242.17;4801445;59;1142880;-71
2023/12/04 05:34:34;;;;;;;34.37;16.70;;;;;;;-3.22;100.00;101247.33;4897567;59;1142969;-69
2023/12/04 05:39:39;;;;;;;35.70;16.63;;;;;;;-3.21;100.00;101246.47;4861604;58;1142849;-70
2023/12/04 05:44:45;;;;;;;38.07;18.17;;;;;;;-3.16;100.00;101247.25;4838570;59;1142990;-71
2023/12/04 05:49:50;;;;;;;36.17;18.03;;;;;;;-3.15;100.00;101251.55;4794658;59;1143096;-70
2023/12/04 05:54:56;;;;;;;42.13;19.13;;;;;;;-3.14;100.00;101248.53;4736481;59;1142809;-76
2023/12/04 06:00:01;;;;;;;36.17;17.43;;;;;;;-3.08;100.00;101239.44;4734660;59;1142963;-74
2023/12/04 06:05:09;;;;;;;37.48;19.00;;;;;;;-3.10;100.00;101235.56;4725066;58;1143006;-71
2023/12/04 06:10:14;;;;;;;34.78;17.55;;;;;;;-3.10;100.00;101230.39;4675594;58;1143066;-70
2023/12/04 06:15:20;;;;;;;45.70;19.57;;;;;;;-3.11;100.00;101231.70;4724922;58;1143036;-71
2023/12/04 06:20:26;;;;;;;47.30;21.20;;;;;;;-3.13;100.00;101233.44;4715325;59;1143278;-71
2023/12/04 06:25:32;;;;;;;48.37;19.37;;;;;;;-3.14;100.00;101239.48;4722975;60;1142903;-70
2023/12/04 06:30:38;;;;;;;43.90;21.80;;;;;;;-3.14;100.00;101251.98;4658098;59;1142816;-70
2023/12/04 06:35:43;;;;;;;55.70;27.57;;;;;;;-3.15;100.00;101247.68;4700960;59;1142800;-71
2023/12/04 06:40:49;;;;;;;167.03;61.33;;;;;;;-3.15;100.00;101253.28;4833173;59;1142741;-71
2023/12/04 06:45:58;;;;;;;56.07;23.30;;;;;;;-3.11;100.00;101251.09;4811751;59;1145118;-70
2023/12/04 06:51:03;;;;;;;47.57;21.63;;;;;;;-3.09;100.00;101240.30;4800613;58;1143037;-72
2023/12/04 06:56:10;;;;;;;49.85;21.52;;;;;;;-3.09;100.00;101239.87;4808425;58;1142926;-72
2023/12/04 07:01:15;;;;;;;45.65;17.55;;;;;;;-3.08;100.00;101235.55;4839201;58;1142832;-72
2023/12/04 07:06:21;;;;;;;240.97;71.00;;;;;;;-3.07;100.00;101245.89;4843227;59;1142752;-70
2023/12/04 07:11:26;;;;;;;99.20;32.87;;;;;;;-3.08;100.00;101246.76;4838262;59;1145161;-69
2023/12/04 07:16:33;;;;;;;59.97;21.63;;;;;;;-3.04;100.00;101241.95;4861624;59;1142959;-69
2023/12/04 07:21:39;;;;;;;59.53;25.00;;;;;;;-3.04;100.00;101241.95;4627895;61;1143054;-69
2023/12/04 07:26:45;;;;;;;216.97;65.63;;;;;;;-3.01;100.00;101238.05;4784065;58;1143153;-70
2023/12/04 07:31:51;;;;;;;83.67;28.83;;;;;;;-2.97;100.00;101246.20;4807748;58;1145009;-69
2023/12/04 07:36:56;;;;;;;63.23;22.53;;;;;;;-3.00;100.00;101247.52;4802913;58;1142935;-70
2023/12/04 07:42:02;;;;;;;71.27;25.67;;;;;;;-3.00;100.00;101259.16;4845470;58;1143069;-71
2023/12/04 07:47:07;;;;;;;75.75;27.95;;;;;;;-3.00;100.00;101253.13;4769376;58;1142837;-71
2023/12/04 07:52:13;;;;;;;74.80;33.90;;;;;;;-2.96;100.00;101250.50;4778561;57;1142764;-70
2023/12/04 07:57:19;;;;;;;58.95;25.80;;;;;;;-2.88;100.00;101254.29;4781805;57;1143105;-70
2023/12/04 08:02:25;;;;;;;66.92;27.60;;;;;;;-2.87;100.00;101247.80;4819459;58;1142806;-69
2023/12/04 08:07:30;;;;;;;52.37;21.37;;;;;;;-2.85;100.00;101242.18;4848674;58;1142913;-71
2023/12/04 08:12:36;;;;;;;56.40;22.03;;;;;;;-2.83;100.00;101244.75;4832099;58;1142874;-69
2023/12/04 08:17:41;;;;;;;57.30;22.67;;;;;;;-2.84;100.00;101242.60;4844764;59;1143332;-71
2023/12/04 08:22:47;;;;;;;49.77;23.50;;;;;;;-2.85;100.00;101235.70;4795118;58;1143084;-71
2023/12/04 08:27:53;;;;;;;66.97;27.63;;;;;;;-2.82;100.00;101242.59;4767115;59;1142771;-70
2023/12/04 08:32:58;;;;;;;52.77;24.40;;;;;;;-2.76;100.00;101252.03;4717898;60;1143104;-75
2023/12/04 08:38:04;;;;;;;61.77;26.50;;;;;;;-2.69;100.00;101264.01;4743457;60;1143018;-76
2023/12/04 08:43:09;;;;;;;51.33;20.40;;;;;;;-2.63;100.00;101261.36;4672250;59;1142838;-76
2023/12/04 08:48:15;;;;;;;53.07;23.57;;;;;;;-2.63;100.00;101272.58;4727783;60;1143173;-75
2023/12/04 08:53:20;;;;;;;44.13;20.30;;;;;;;-2.63;100.00;101271.28;4814586;58;1143008;-76
2023/12/04 08:58:26;;;;;;;49.43;19.90;;;;;;;-2.56;100.00;101278.52;4745309;58;1143083;-75
2023/12/04 09:03:32;;;;;;;69.97;25.70;;;;;;;-2.56;100.00;101285.86;4716478;60;1143201;-74
2023/12/04 09:08:38;;;;;;;88.90;34.97;;;;;;;-2.54;100.00;101290.58;4724454;60;1143285;-76
2023/12/04 09:13:43;;;;;;;61.90;26.43;;;;;;;-2.51;100.00;101304.80;4743181;60;1142947;-70
2023/12/04 09:18:49;;;;;;;73.67;30.17;;;;;;;-2.52;100.00;101296.61;4724536;60;1143336;-75
2023/12/04 09:23:54;;;;;;;55.37;26.67;;;;;;;-2.46;100.00;101300.02;4774929;58;1143262;-75
2023/12/04 09:29:00;;;;;;;50.60;21.27;;;;;;;-2.43;100.00;101297.36;4766856;59;1143018;-70
2023/12/04 09:34:06;;;;;;;56.77;26.10;;;;;;;-2.32;100.00;101295.08;4839963;59;1145035;-70
2023/12/04 09:39:11;;;;;;;55.80;23.07;;;;;;;-2.32;100.00;101295.52;4757344;59;1142919;-71
2023/12/04 09:44:18;;;;;;;70.03;29.20;;;;;;;-2.31;100.00;101282.98;4764535;59;1143081;-70
2023/12/04 09:49:24;;;;;;;65.30;24.93;;;;;;;-2.25;100.00;101270.79;4788122;59;1142877;-69
2023/12/04 09:54:31;;;;;;;67.03;29.70;;;;;;;-2.20;100.00;101262.97;4811034;60;1143131;-70
2023/12/04 09:59:37;;;;;;;58.13;27.40;;;;;;;-2.16;100.00;101256.44;4830355;59;1143198;-70
2023/12/04 10:04:44;;;;;;;51.43;24.53;;;;;;;-2.10;100.00;101257.20;4744915;59;1142944;-75
2023/12/04 10:09:50;;;;;;;61.10;27.53;;;;;;;-2.03;100.00;101254.97;4609363;60;1143286;-76
2023/12/04 10:15:08;;;;;;;67.57;33.47;;;;;;;-1.94;100.00;101251.79;4791240;59;1143128;-75
2023/12/04 10:20:19;;;;;;;56.83;25.07;;;;;;;-1.88;100.00;101254.74;4724617;58;1143109;-76
2023/12/04 10:25:28;;;;;;;58.83;27.57;;;;;;;-1.83;100.00;101256.80;4642523;59;1143194;-76
2023/12/04 10:30:34;;;;;;;65.53;26.53;;;;;;;-1.76;100.00;101258.44;4602425;62;1143071;-75
2023/12/04 10:35:40;;;;;;;95.50;48.53;;;;;;;-1.64;100.00;101259.54;4693059;60;1143057;-70
2023/12/04 10:40:46;;;;;;;60.73;27.90;;;;;;;-1.55;100.00;101250.77;4711418;61;1143014;-69
2023/12/04 10:45:54;;;;;;;56.07;25.17;;;;;;;-1.44;100.00;101235.88;4665880;61;1142857;-69
2023/12/04 10:51:00;;;;;;;48.70;20.90;;;;;;;-1.32;100.00;101229.17;4667276;62;1142875;-70
2023/12/04 10:56:08;;;;;;;87.30;40.37;;;;;;;-1.17;100.00;101225.45;4649140;62;1142891;-77
2023/12/04 11:01:15;;;;;;;54.17;24.73;;;;;;;-1.02;100.00;101213.92;4666840;62;1142921;-76
2023/12/04 11:06:23;;;;;;;60.83;30.13;;;;;;;-0.88;100.00;101206.73;4602328;62;1143447;-77
2023/12/04 11:11:40;;;;;;;58.00;28.23;;;;;;;-0.76;100.00;101202.14;4679332;60;1142775;-76
2023/12/04 11:16:56;;;;;;;69.97;35.23;;;;;;;-0.66;100.00;101204.13;4581769;61;1143022;-76
2023/12/04 11:22:03;;;;;;;51.73;25.50;;;;;;;-0.55;100.00;101202.59;4666640;60;1143207;-76
2023/12/04 11:27:10;;;;;;;94.95;42.43;;;;;;;-0.50;100.00;101202.06;4653780;62;1143082;-77
2023/12/04 11:32:18;;;;;;;95.37;39.80;;;;;;;-0.40;100.00;101198.37;4645767;60;1142928;-75
2023/12/04 11:37:24;;;;;;;46.60;22.90;;;;;;;-0.29;100.00;101195.52;4570881;60;1142907;-76
2023/12/04 11:42:32;;;;;;;37.73;19.67;;;;;;;-0.05;100.00;101191.94;4592743;61;1143069;-76
2023/12/04 11:47:58;;;;;;;35.70;18.23;;;;;;;0.04;100.00;101190.00;4640260;60;1142838;-77
2023/12/04 11:53:05;;;;;;;57.60;28.30;;;;;;;0.12;100.00;101191.55;4656141;60;1140918;-77
2023/12/04 11:58:12;;;;;;;52.40;22.30;;;;;;;0.38;100.00;101190.90;4714177;59;1140858;-77
2023/12/04 12:03:17;;;;;;;46.02;21.50;;;;;;;0.75;100.00;101180.86;4656076;60;1140848;-75
2023/12/04 12:08:25;;;;;;;69.60;29.57;;;;;;;0.60;100.00;101178.21;4668586;59;1140880;-75
2023/12/04 12:13:31;;;;;;;64.42;31.73;;;;;;;0.48;100.00;101164.19;4667615;59;1141140;-75
2023/12/04 12:18:37;;;;;;;54.47;25.60;;;;;;;0.28;100.00;101162.97;4639897;60;1141446;-75
2023/12/04 12:23:43;;;;;;;58.30;26.17;;;;;;;0.16;100.00;101160.64;4706941;60;1141067;-77
2023/12/04 12:28:49;;;;;;;67.50;26.47;;;;;;;0.17;100.00;101156.30;4751514;60;1140893;-77
2023/12/04 12:33:57;;;;;;;63.83;27.57;;;;;;;-0.04;100.00;101138.20;4717034;60;1140932;-77
2023/12/04 12:39:04;;;;;;;57.60;26.83;;;;;;;-0.23;100.00;101135.61;4720670;60;1142394;-77
2023/12/04 12:44:10;;;;;;;65.30;31.77;;;;;;;-0.32;100.00;101117.20;4733815;60;1142772;-77
2023/12/04 12:49:22;;;;;;;67.03;31.90;;;;;;;-0.38;100.00;101104.34;4727317;59;1142857;-76
2023/12/04 12:54:32;;;;;;;62.20;30.67;;;;;;;-0.34;100.00;101113.78;4771700;59;1143092;-77
2023/12/04 12:59:36;;;;;;;77.12;36.58;;;;;;;-0.27;100.00;101102.78;4810848;58;1142947;-78
2023/12/04 13:04:45;;;;;;;66.20;35.80;;;;;;;-0.28;100.00;101097.17;4784133;59;1142720;-77
2023/12/04 13:09:52;;;;;;;53.67;25.13;;;;;;;-0.34;100.00;101100.79;4829827;58;1142998;-76
2023/12/04 13:14:57;;;;;;;65.73;32.57;;;;;;;-0.46;100.00;101104.50;4746267;57;1142986;-77
2023/12/04 13:20:04;;;;;;;80.40;41.40;;;;;;;-0.59;100.00;101098.33;4809787;59;1142825;-77
2023/12/04 13:25:10;;;;;;;68.30;31.67;;;;;;;-0.72;100.00;101094.71;4783195;59;1143034;-74
2023/12/04 13:30:16;;;;;;;78.30;33.47;;;;;;;-0.72;100.00;101088.66;4743252;60;1143110;-75
2023/12/04 13:35:21;;;;;;;94.22;41.77;;;;;;;-0.79;100.00;101081.47;4685646;59;1142955;-76
2023/12/04 13:40:31;;;;;;;86.23;35.17;;;;;;;-0.85;100.00;101080.73;4670410;60;1143076;-75
2023/12/04 13:45:35;;;;;;;76.80;29.93;;;;;;;-0.95;100.00;101080.09;4680589;60;1142855;-75
2023/12/04 13:50:40;;;;;;;138.97;52.53;;;;;;;-1.06;100.00;101072.95;4659147;59;1142911;-75
2023/12/04 14:01:08;;;;;;;509.17;152.07;;;;;;;-1.14;100.00;101073.12;4705064;60;1147163;-75
2023/12/04 14:06:08;;;;;;;135.50;49.87;;;;;;;-1.15;100.00;101073.16;4715177;58;1147374;-76
2023/12/04 14:11:14;;;;;;;115.50;42.80;;;;;;;-1.20;100.00;101073.23;4657066;61;1144962;-75
2023/12/04 14:16:20;;;;;;;95.97;40.80;;;;;;;-1.27;100.00;101072.11;4700421;60;1145224;-76
2023/12/04 14:21:25;;;;;;;66.62;29.67;;;;;;;-1.34;100.00;101074.41;4712626;59;1142962;-76
2023/12/04 14:26:31;;;;;;;80.77;32.63;;;;;;;-1.42;100.00;101066.34;4713438;59;1143241;-76
2023/12/04 14:31:37;;;;;;;73.40;29.35;;;;;;;-1.48;100.00;101058.67;4703010;59;1142919;-75
2023/12/04 14:36:42;;;;;;;78.73;31.00;;;;;;;-1.52;100.00;101057.45;4746551;59;1143336;-76
2023/12/04 14:41:48;;;;;;;72.13;29.27;;;;;;;-1.59;100.00;101060.63;4807378;60;1142846;-76
2023/12/04 14:46:53;;;;;;;71.80;28.70;;;;;;;-1.65;100.00;101054.69;4752286;58;1143019;-76
2023/12/04 14:52:00;;;;;;;88.13;35.03;;;;;;;-1.72;100.00;101044.90;4731346;60;1142999;-76
2023/12/04 15:08:24;;;;;;;146.37;59.20;;;;;;;-1.77;100.00;101037.64;4797970;58;1142887;-76
2023/12/04 15:18:36;;;;;;;176.13;64.70;;;;;;;-1.73;100.00;101046.22;4684833;61;1145102;-75
2023/12/04 15:23:34;;;;;;;88.90;37.65;;;;;;;-1.78;100.00;101039.38;4750943;59;1144743;-75
2023/12/04 15:28:39;;;;;;;141.53;56.20;;;;;;;-1.83;100.00;101035.14;4710747;60;1143026;-75
2023/12/04 15:33:45;;;;;;;91.67;40.57;;;;;;;-1.86;100.00;101036.52;4679418;61;1145122;-74
2023/12/04 15:38:50;;;;;;;101.27;43.17;;;;;;;-1.90;100.00;101034.86;4778719;59;1143252;-76
2023/12/04 15:43:56;;;;;;;94.30;36.73;;;;;;;-1.99;100.00;101034.60;4700895;60;1145021;-78
2023/12/04 15:49:01;;;;;;;84.13;35.05;;;;;;;-2.04;100.00;101035.11;4580274;61;1142886;-76
2023/12/04 15:54:07;;;;;;;121.67;47.10;;;;;;;-2.12;100.00;101017.09;4504577;61;1143015;-76
2023/12/04 15:59:12;;;;;;;96.60;39.03;;;;;;;-2.14;100.00;101016.73;4651331;61;1145427;-78
2023/12/04 16:04:18;;;;;;;120.23;48.00;;;;;;;-2.22;100.00;101019.44;4693393;60;1143264;-77
2023/12/04 16:09:24;;;;;;;98.30;37.63;;;;;;;-2.23;100.00;101009.95;4695444;60;1145269;-76
2023/12/04 16:14:30;;;;;;;84.77;35.97;;;;;;;-2.23;100.00;100998.73;4678527;59;1143476;-76
2023/12/04 16:19:37;;;;;;;97.20;42.33;;;;;;;-2.24;100.00;100996.59;4745972;59;1142969;-76
2023/12/04 16:24:43;;;;;;;89.50;42.43;;;;;;;-2.27;100.00;100997.08;4739260;59;1142820;-77
2023/12/04 16:29:48;;;;;;;84.53;35.63;;;;;;;-2.36;100.00;100994.66;4722842;59;1142959;-76
2023/12/04 16:34:54;;;;;;;110.80;44.40;;;;;;;-2.42;100.00;101001.22;4773077;59;1143045;-77
2023/12/04 16:39:59;;;;;;;86.27;39.87;;;;;;;-2.45;100.00;101006.04;4801975;58;1145385;-78
2023/12/04 16:45:06;;;;;;;79.83;36.37;;;;;;;-2.52;100.00;101000.09;4720906;59;1143617;-80
2023/12/04 16:50:11;;;;;;;92.97;40.10;;;;;;;-2.53;100.00;100991.05;4747949;59;1143018;-77
2023/12/04 16:55:17;;;;;;;87.43;36.73;;;;;;;-2.61;100.00;100991.63;4812965;58;1254554;-76
2023/12/04 17:00:24;;;;;;;89.97;35.87;;;;;;;-2.66;100.00;100984.37;4748632;59;1142970;-76
2023/12/04 17:05:29;;;;;;;94.47;40.75;;;;;;;-2.74;100.00;100974.56;4731524;59;1143263;-75
2023/12/04 17:10:35;;;;;;;93.67;40.40;;;;;;;-2.75;100.00;100965.11;4750962;58;1143237;-75
2023/12/04 17:15:41;;;;;;;100.07;39.70;;;;;;;-2.77;100.00;100958.66;4768662;58;1143247;-76
2023/12/04 17:20:47;;;;;;;127.00;61.35;;;;;;;-2.76;100.00;100955.64;4701388;59;1145098;-77
2023/12/04 17:25:54;;;;;;;101.05;42.60;;;;;;;-2.75;100.00;100953.00;4665665;60;1145018;-77
2023/12/04 17:30:59;;;;;;;107.83;42.85;;;;;;;-2.72;100.00;100950.36;4649572;60;1144994;-76
2023/12/04 17:36:06;;;;;;;115.23;45.57;;;;;;;-2.72;100.00;100937.86;4646997;60;1145253;-76
2023/12/04 17:41:14;;;;;;;124.30;48.20;;;;;;;-2.72;100.00;100948.21;4591545;62;1145287;-77
2023/12/04 17:46:20;;;;;;;134.50;52.27;;;;;;;-2.72;100.00;100952.09;4610235;60;1145396;-76
2023/12/04 17:51:26;;;;;;;124.70;49.37;;;;;;;-2.70;100.00;100939.55;4620065;61;1145305;-75
2023/12/04 17:56:33;;;;;;;113.40;47.13;;;;;;;-2.70;100.00;100945.16;4566842;62;1145433;-76
2023/12/04 18:01:38;;;;;;;117.50;50.60;;;;;;;-2.67;100.00;100932.17;4618946;61;1145071;-76
2023/12/04 18:06:44;;;;;;;126.53;51.60;;;;;;;-2.62;100.00;100938.99;4646611;61;1144991;-76
2023/12/04 18:11:49;;;;;;;97.53;40.37;;;;;;;-2.62;100.00;100938.99;4583970;61;1145072;-79
2023/12/04 18:16:55;;;;;;;100.40;39.83;;;;;;;-2.63;100.00;100938.58;4657320;62;1143037;-78
2023/12/04 18:22:00;;;;;;;95.63;38.90;;;;;;;-2.65;100.00;100933.01;4648573;62;1145257;-76
2023/12/04 18:27:07;;;;;;;106.20;40.87;;;;;;;-2.65;100.00;100933.01;4644848;61;1244206;-77
2023/12/04 18:32:13;;;;;;;116.93;46.88;;;;;;;-2.75;100.00;100924.99;4661244;61;1145090;-77
2023/12/04 18:37:26;;;;;;;97.20;41.30;;;;;;;-2.78;100.00;100932.80;4678015;59;1144999;-77
2023/12/04 18:42:31;;;;;;;103.44;46.00;;;;;;;-2.83;100.00;100936.75;4676023;59;1142917;-77
2023/12/04 18:47:42;;;;;;;86.25;37.95;;;;;;;-2.83;100.00;100944.52;4614455;58;1145429;-78
2023/12/04 18:52:49;;;;;;;103.63;41.73;;;;;;;-2.85;100.00;100939.80;4655875;59;1143243;-78
2023/12/04 18:57:55;;;;;;;97.55;40.43;;;;;;;-2.93;100.00;100930.02;4695826;60;1145318;-78
2023/12/04 19:03:01;;;;;;;93.67;40.92;;;;;;;-2.97;100.00;100927.91;4605937;61;1143193;-78
2023/12/04 19:08:06;;;;;;;101.17;42.23;;;;;;;-2.98;100.00;100930.08;4733710;58;1143128;-78
2023/12/04 19:13:12;;;;;;;93.70;37.10;;;;;;;-3.01;100.00;100924.09;4732579;59;1145255;-78
2023/12/04 19:18:18;;;;;;;87.50;36.97;;;;;;;-3.03;100.00;100920.23;4726610;60;1143216;-79
2023/12/04 19:23:23;;;;;;;86.22;37.03;;;;;;;-3.04;100.00;100917.67;4770261;59;1143203;-78
2023/12/04 19:28:30;;;;;;;99.20;42.43;;;;;;;-3.06;100.00;100912.55;4763289;59;1142901;-78
2023/12/04 19:33:36;;;;;;;97.65;40.10;;;;;;;-3.11;100.00;100906.58;4730572;60;1142991;-78
2023/12/04 19:38:42;;;;;;;99.57;39.23;;;;;;;-3.11;100.00;100900.11;4729920;60;1142976;-78
2023/12/04 19:43:50;;;;;;;109.87;40.23;;;;;;;-3.11;100.00;100892.35;4742150;60;1143265;-78
2023/12/04 19:48:54;;;;;;;107.20;42.60;;;;;;;-3.13;100.00;100892.81;4796469;58;1145268;-79
2023/12/04 19:54:01;;;;;;;113.33;42.43;;;;;;;-3.12;100.00;100888.05;4776144;59;1145114;-80
2023/12/04 19:59:06;;;;;;;91.03;38.77;;;;;;;-3.10;100.00;100887.59;4804041;59;1145272;-79
2023/12/04 20:04:12;;;;;;;88.17;37.57;;;;;;;-3.12;100.00;100882.88;4769468;59;1143262;-80
2023/12/04 20:09:18;;;;;;;92.97;37.20;;;;;;;-3.15;100.00;100884.66;4758273;59;1143226;-81
2023/12/04 20:14:24;;;;;;;88.45;37.17;;;;;;;-3.14;100.00;100882.48;4769591;60;1143196;-80
2023/12/04 20:19:29;;;;;;;88.10;38.13;;;;;;;-3.15;100.00;100878.19;4775249;59;1142989;-79
2023/12/04 20:24:35;;;;;;;90.67;36.37;;;;;;;-3.21;100.00;100880.45;4853280;58;1142954;-77
2023/12/04 20:29:40;;;;;;;82.33;33.80;;;;;;;-3.28;100.00;100874.50;4821284;59;1142901;-77
2023/12/04 20:34:46;;;;;;;87.00;36.73;;;;;;;-3.34;100.00;100869.85;4769590;60;1142952;-75
2023/12/04 20:39:52;;;;;;;88.17;38.57;;;;;;;-3.36;100.00;100865.99;4751606;59;1143059;-77
2023/12/04 20:45:00;;;;;;;100.07;41.40;;;;;;;-3.38;100.00;100862.60;4751956;59;1142905;-78
2023/12/04 20:50:09;;;;;;;102.03;40.47;;;;;;;-3.42;100.00;100855.77;4766083;59;1145057;-76
2023/12/04 20:55:13;;;;;;;89.75;37.25;;;;;;;-3.45;100.00;100857.53;4749543;59;1145220;-76
2023/12/04 21:00:19;;;;;;;86.10;36.90;;;;;;;-3.43;100.00;100860.52;4700821;59;1143000;-76
2023/12/04 21:05:25;;;;;;;79.72;35.68;;;;;;;-3.43;100.00;100860.95;4626948;61;1143206;-76
2023/12/04 21:10:31;;;;;;;78.00;35.20;;;;;;;-3.44;100.00;100852.34;4700680;59;1143222;-76
2023/12/04 21:15:36;;;;;;;89.30;36.67;;;;;;;-3.44;100.00;100860.53;4702287;60;1142963;-76
2023/12/04 21:20:42;;;;;;;94.27;42.07;;;;;;;-3.47;100.00;100854.97;4690979;59;1142980;-76
2023/12/04 21:25:47;;;;;;;88.80;34.87;;;;;;;-3.46;100.00;100844.19;4719379;60;1143087;-76
2023/12/04 21:30:53;;;;;;;88.50;37.93;;;;;;;-3.44;100.00;100839.84;4740630;60;1143116;-76
2023/12/04 21:35:58;;;;;;;74.90;33.30;;;;;;;-3.43;100.00;100824.75;4782771;59;1142993;-76
2023/12/04 21:41:05;;;;;;;79.47;33.20;;;;;;;-3.43;100.00;100810.09;4778322;59;1142812;-76
2023/12/04 21:46:11;;;;;;;246.80;75.53;;;;;;;-3.38;100.00;100808.74;4785091;59;1142991;-76
2023/12/04 21:51:16;;;;;;;83.33;36.10;;;;;;;-3.35;100.00;100812.11;4769243;59;1144863;-76
2023/12/04 21:56:22;;;;;;;77.93;32.40;;;;;;;-3.34;100.00;100809.08;4780294;59;1143011;-77
2023/12/04 22:01:27;;;;;;;90.10;34.47;;;;;;;-3.30;100.00;100808.16;4744073;60;1142933;-76
2023/12/04 22:06:33;;;;;;;66.15;28.45;;;;;;;-3.30;100.00;100797.81;4709742;61;1143160;-76
2023/12/04 22:11:38;;;;;;;72.70;31.07;;;;;;;-3.27;100.00;100792.16;4730793;59;1143112;-76
2023/12/04 22:16:44;;;;;;;66.53;28.37;;;;;;;-3.25;100.00;100785.67;4774945;59;1143197;-76
2023/12/04 22:21:50;;;;;;;69.50;26.20;;;;;;;-3.23;100.00;100773.14;4709620;60;1143181;-76
2023/12/04 22:26:55;;;;;;;64.83;27.70;;;;;;;-3.21;100.00;100767.47;4708793;60;1143327;-75
2023/12/04 22:32:01;;;;;;;80.80;28.33;;;;;;;-3.20;100.00;100766.59;4730841;59;1142937;-76
2023/12/04 22:37:07;;;;;;;63.30;24.70;;;;;;;-3.14;100.00;100757.88;4703063;59;1143015;-76
2023/12/04 22:42:12;;;;;;;73.10;25.83;;;;;;;-3.12;100.00;100759.15;4751953;59;1142969;-76
2023/12/04 22:47:19;;;;;;;61.48;26.00;;;;;;;-3.12;100.00;100753.97;4786018;59;1142976;-76